Time;durP1;ratioP1;P1;durP2;ratioP2;P2;SDS_P1;SDS_P2;PMS_P1;PMS_P2;Temp;Humidity;BMP_temperature;BMP_pressure;BME280_temperature;BME280_humidity;BME280_pressure;Samples;Min_cycle;Max_cycle;Signal;HPM_P1;HPM_P2
2023/05/21 00:00:11;;;;;;;;;;;13.80;99.90;;;;;;5076859;28;19973;-72
2023/05/21 00:02:37;;;;;;;;;;;13.80;99.90;;;;;;5079387;28;19986;-73
2023/05/21 00:05:03;;;;;;;;;;;13.90;99.90;;;;;;5071665;28;19932;-72
2023/05/21 00:07:30;;;;;;;;;;;13.80;99.90;;;;;;5081672;28;19924;-74
2023/05/21 00:09:56;;;;;;;;;;;13.80;99.90;;;;;;5082223;28;19928;-73
2023/05/21 00:12:21;;;;;;;;;;;13.80;99.90;;;;;;5057098;28;20011;-73
2023/05/21 00:14:47;;;;;;;;;;;13.80;99.90;;;;;;5080348;28;19932;-74
2023/05/21 00:17:12;;;;;;;;;;;13.80;99.90;;;;;;5083505;28;19929;-73
2023/05/21 00:19:39;;;;;;;;;;;13.70;99.90;;;;;;5082956;28;19932;-73
2023/05/21 00:22:04;;;;;;;;;;;13.80;99.90;;;;;;5080812;28;19931;-73
2023/05/21 00:24:30;;;;;;;;;;;13.70;99.90;;;;;;5082872;28;19925;-73
2023/05/21 00:26:55;;;;;;;;;;;13.80;99.90;;;;;;5072949;28;19924;-72
2023/05/21 00:29:21;;;;;;;;;;;13.70;99.90;;;;;;5062733;28;19986;-73
2023/05/21 00:31:48;;;;;;;;;;;13.70;99.90;;;;;;5059081;28;19988;-73
2023/05/21 00:34:15;;;;;;;;;;;13.70;99.90;;;;;;5079816;28;20007;-72
2023/05/21 00:36:44;;;;;;;;;;;13.80;99.90;;;;;;5079629;28;19979;-73
2023/05/21 00:39:10;;;;;;;;;;;13.80;99.90;;;;;;5039239;28;19929;-73
2023/05/21 00:41:37;;;;;;;;;;;13.70;99.90;;;;;;5080613;28;19924;-73
2023/05/21 00:44:02;;;;;;;;;;;13.60;99.90;;;;;;5057068;28;19963;-73
2023/05/21 00:46:28;;;;;;;;;;;13.70;99.90;;;;;;5083815;28;19966;-73
2023/05/21 00:48:56;;;;;;;;;;;13.70;99.90;;;;;;5084228;28;19932;-73
2023/05/21 00:51:22;;;;;;;;;;;13.60;99.90;;;;;;5040396;28;19933;-73
2023/05/21 00:53:51;;;;;;;;;;;13.60;99.90;;;;;;5057738;28;19929;-72
2023/05/21 00:56:18;;;;;;;;;;;13.70;99.90;;;;;;5036895;28;20523;-74
2023/05/21 00:58:44;;;;;;;;;;;13.60;99.90;;;;;;5074559;28;19928;-73
2023/05/21 01:01:12;;;;;;;;;;;13.70;99.90;;;;;;5074890;28;20263;-73
2023/05/21 01:03:39;;;;;;;;;;;13.70;99.90;;;;;;5060147;28;19976;-73
2023/05/21 01:06:05;;;;;;;;;;;13.60;99.90;;;;;;5082656;28;19963;-73
2023/05/21 01:08:33;;;;;;;;;;;13.70;99.90;;;;;;5073511;28;20480;-73
2023/05/21 01:10:58;;;;;;;;;;;13.60;99.90;;;;;;5074391;28;20313;-73
2023/05/21 01:13:25;;;;;;;;;;;13.60;99.90;;;;;;5074171;28;19924;-73
2023/05/21 01:15:52;;;;;;;;;;;13.60;99.90;;;;;;5052394;28;20378;-73
2023/05/21 01:18:19;;;;;;;;;;;13.60;99.90;;;;;;5057607;28;19932;-74
2023/05/21 01:20:48;;;;;;;;;;;13.60;99.90;;;;;;5055908;28;20423;-73
2023/05/21 01:23:15;;;;;;;;;;;13.60;99.90;;;;;;5072624;28;19924;-73
2023/05/21 01:25:41;;;;;;;;;;;13.70;99.90;;;;;;5074387;28;19924;-74
2023/05/21 01:28:07;;;;;;;;;;;13.60;99.90;;;;;;5074214;28;20007;-73
2023/05/21 01:30:32;;;;;;;;;;;13.60;99.90;;;;;;5020836;28;19925;-73
2023/05/21 01:33:02;;;;;;;;;;;13.60;99.90;;;;;;5054158;28;19948;-73
2023/05/21 01:35:33;;;;;;;;;;;13.60;99.90;;;;;;5053232;28;19954;-72
2023/05/21 01:38:18;;;;;;;;;;;13.60;99.90;;;;;;5049672;28;20393;-73
2023/05/21 01:40:57;;;;;;;;;;;13.60;99.90;;;;;;5070868;28;19924;-73
2023/05/21 01:43:24;;;;;;;;;;;13.60;99.90;;;;;;5058293;28;19928;-73
2023/05/21 01:45:51;;;;;;;;;;;13.60;99.90;;;;;;5053047;28;20329;-73
2023/05/21 01:48:17;;;;;;;;;;;13.60;99.90;;;;;;5066250;28;19932;-73
2023/05/21 01:50:43;;;;;;;;;;;13.60;99.90;;;;;;5064606;28;19977;-73
2023/05/21 01:53:09;;;;;;;;;;;13.60;99.90;;;;;;5062384;28;20255;-73
2023/05/21 01:55:38;;;;;;;;;;;13.70;99.90;;;;;;5055571;28;20547;-73
2023/05/21 01:58:04;;;;;;;;;;;13.60;99.90;;;;;;5044496;28;19924;-73
2023/05/21 02:00:31;;;;;;;;;;;13.80;99.90;;;;;;5053878;28;19931;-73
2023/05/21 02:02:57;;;;;;;;;;;13.70;99.90;;;;;;5053178;28;19925;-72
2023/05/21 02:05:23;;;;;;;;;;;13.50;99.90;;;;;;5048733;28;20007;-73
2023/05/21 02:07:49;;;;;;;;;;;13.60;99.90;;;;;;5061819;28;19960;-73
2023/05/21 02:10:15;;;;;;;;;;;13.60;99.90;;;;;;5071770;28;19935;-73
2023/05/21 02:12:42;;;;;;;;;;;13.50;99.90;;;;;;5049576;28;19925;-73
2023/05/21 02:15:07;;;;;;;;;;;13.50;99.90;;;;;;5045001;28;19925;-73
2023/05/21 02:17:33;;;;;;;;;;;13.50;99.90;;;;;;5072160;28;19931;-73
2023/05/21 02:20:09;;;;;;;;;;;13.50;99.90;;;;;;5067365;28;20017;-73
2023/05/21 02:22:36;;;;;;;;;;;13.40;99.90;;;;;;5037437;28;19931;-74
2023/05/21 02:25:01;;;;;;;;;;;13.40;99.90;;;;;;5070779;28;19947;-73
2023/05/21 02:27:30;;;;;;;;;;;13.30;99.90;;;;;;5060145;28;20380;-72
2023/05/21 02:29:56;;;;;;;;;;;13.40;99.90;;;;;;5072758;28;20282;-72
2023/05/21 02:32:22;;;;;;;;;;;13.40;99.90;;;;;;5063855;28;19924;-72
2023/05/21 02:34:48;;;;;;;;;;;13.20;99.90;;;;;;5052551;28;20380;-72
2023/05/21 02:37:14;;;;;;;;;;;13.20;99.90;;;;;;5037848;28;19947;-73
2023/05/21 02:39:40;;;;;;;;;;;13.20;99.90;;;;;;5071836;28;20438;-74
2023/05/21 02:42:05;;;;;;;;;;;13.10;99.90;;;;;;5053657;28;20283;-73
2023/05/21 02:44:31;;;;;;;;;;;13.00;99.90;;;;;;5066663;28;19925;-73
2023/05/21 02:46:56;;;;;;;;;;;13.00;99.90;;;;;;5072044;28;20393;-72
2023/05/21 02:49:22;;;;;;;;;;;13.00;99.90;;;;;;5066255;28;19925;-73
2023/05/21 02:51:47;;;;;;;;;;;13.00;99.90;;;;;;5052492;28;20336;-73
2023/05/21 02:54:13;;;;;;;;;;;12.90;99.90;;;;;;5053944;28;20368;-72
2023/05/21 02:56:39;;;;;;;;;;;13.00;99.90;;;;;;5054022;28;20070;-73
2023/05/21 02:59:05;;;;;;;;;;;13.00;99.90;;;;;;5064140;28;19970;-73
2023/05/21 03:01:30;;;;;;;;;;;12.90;99.90;;;;;;5076679;28;19980;-73
2023/05/21 03:03:56;;;;;;;;;;;12.90;99.90;;;;;;5076504;28;20515;-73
2023/05/21 03:06:21;;;;;;;;;;;12.90;99.90;;;;;;5076049;28;20348;-74
2023/05/21 03:08:47;;;;;;;;;;;12.90;99.90;;;;;;5057379;28;19925;-73
2023/05/21 03:11:12;;;;;;;;;;;12.90;99.90;;;;;;5076668;28;20310;-72
2023/05/21 03:13:38;;;;;;;;;;;12.90;99.90;;;;;;5076268;28;19972;-72
2023/05/21 03:16:04;;;;;;;;;;;12.90;99.90;;;;;;5070239;28;19971;-74
2023/05/21 03:18:29;;;;;;;;;;;12.80;99.90;;;;;;5076403;28;19968;-73
2023/05/21 03:20:57;;;;;;;;;;;12.80;99.90;;;;;;5071780;28;19925;-73
2023/05/21 03:23:23;;;;;;;;;;;12.80;99.90;;;;;;5055195;28;20398;-72
2023/05/21 03:25:49;;;;;;;;;;;12.80;99.90;;;;;;5076126;28;19924;-72
2023/05/21 03:28:16;;;;;;;;;;;12.80;99.90;;;;;;5076441;28;19924;-72
2023/05/21 03:30:45;;;;;;;;;;;12.70;99.90;;;;;;5075990;28;19970;-73
2023/05/21 03:33:11;;;;;;;;;;;12.70;99.90;;;;;;5056327;28;20377;-72
2023/05/21 03:35:36;;;;;;;;;;;12.70;99.90;;;;;;5046363;28;20011;-71
2023/05/21 03:38:02;;;;;;;;;;;12.70;99.90;;;;;;5039475;28;20433;-72
2023/05/21 03:40:27;;;;;;;;;;;12.70;99.90;;;;;;5060144;28;20011;-72
2023/05/21 03:42:53;;;;;;;;;;;12.70;99.90;;;;;;5067240;28;19979;-73
2023/05/21 03:45:19;;;;;;;;;;;12.70;99.90;;;;;;5038885;28;19924;-73
2023/05/21 03:47:44;;;;;;;;;;;12.70;99.90;;;;;;5075934;28;19924;-72
2023/05/21 03:50:10;;;;;;;;;;;12.70;99.90;;;;;;5075369;28;20370;-72
2023/05/21 03:52:35;;;;;;;;;;;12.70;99.90;;;;;;5070679;28;20012;-73
2023/05/21 03:55:01;;;;;;;;;;;12.70;99.90;;;;;;5073930;28;19928;-73
2023/05/21 03:57:27;;;;;;;;;;;12.70;99.90;;;;;;5064156;28;20140;-72
2023/05/21 03:59:52;;;;;;;;;;;12.70;99.90;;;;;;5055739;28;20401;-72
2023/05/21 04:02:20;;;;;;;;;;;12.70;99.90;;;;;;5055687;28;19925;-73
2023/05/21 04:04:46;;;;;;;;;;;12.70;99.90;;;;;;5056344;28;19932;-73
2023/05/21 04:07:14;;;;;;;;;;;12.70;99.90;;;;;;5057312;28;19935;-72
2023/05/21 04:09:40;;;;;;;;;;;12.60;99.90;;;;;;5073051;28;20405;-73
2023/05/21 04:12:06;;;;;;;;;;;12.70;99.90;;;;;;5075255;28;19978;-73
2023/05/21 04:14:33;;;;;;;;;;;12.70;99.90;;;;;;5075413;28;20412;-72
2023/05/21 04:16:58;;;;;;;;;;;12.80;99.90;;;;;;5060513;28;20375;-73
2023/05/21 04:19:24;;;;;;;;;;;12.80;99.90;;;;;;5055126;28;19932;-73
2023/05/21 04:21:50;;;;;;;;;;;12.70;99.90;;;;;;5057052;28;19924;-73
2023/05/21 04:24:15;;;;;;;;;;;12.70;99.90;;;;;;5068401;28;20020;-73
2023/05/21 04:26:41;;;;;;;;;;;12.70;99.90;;;;;;5073691;28;19958;-74
2023/05/21 04:29:07;;;;;;;;;;;12.70;99.90;;;;;;5075620;28;19924;-73
2023/05/21 04:31:33;;;;;;;;;;;12.70;99.90;;;;;;5069942;28;19938;-74
2023/05/21 04:33:58;;;;;;;;;;;12.70;99.90;;;;;;5077398;28;19928;-74
2023/05/21 04:36:24;;;;;;;;;;;12.70;99.90;;;;;;5074126;28;19971;-74
2023/05/21 04:38:49;;;;;;;;;;;12.80;99.90;;;;;;5063315;28;19932;-74
2023/05/21 04:41:17;;;;;;;;;;;12.70;99.90;;;;;;5059067;28;19925;-74
2023/05/21 04:43:43;;;;;;;;;;;12.80;99.90;;;;;;5059899;28;19925;-74
2023/05/21 04:46:08;;;;;;;;;;;12.80;99.90;;;;;;5064921;28;20397;-74
2023/05/21 04:48:34;;;;;;;;;;;12.80;99.90;;;;;;5070817;28;19924;-72
2023/05/21 04:50:59;;;;;;;;;;;12.90;99.90;;;;;;5078830;28;20446;-72
2023/05/21 04:53:25;;;;;;;;;;;12.90;99.90;;;;;;5072343;28;20027;-72
2023/05/21 04:55:50;;;;;;;;;;;13.00;99.90;;;;;;5058727;28;19924;-71
2023/05/21 04:58:17;;;;;;;;;;;13.00;99.90;;;;;;5074485;28;19978;-73
2023/05/21 05:00:45;;;;;;;;;;;13.00;99.90;;;;;;5056930;28;19929;-72
2023/05/21 05:03:11;;;;;;;;;;;13.00;99.90;;;;;;5074690;28;20007;-72
2023/05/21 05:05:37;;;;;;;;;;;13.10;99.90;;;;;;5075101;28;19929;-72
2023/05/21 05:08:03;;;;;;;;;;;13.10;99.90;;;;;;5068320;28;19974;-71
2023/05/21 05:10:28;;;;;;;;;;;13.10;99.90;;;;;;5076233;28;19928;-72
2023/05/21 05:12:54;;;;;;;;;;;13.10;99.90;;;;;;5076016;28;19924;-71
2023/05/21 05:15:19;;;;;;;;;;;13.10;99.90;;;;;;5076351;28;19925;-72
2023/05/21 05:17:47;;;;;;;;;;;13.10;99.90;;;;;;5075000;28;19947;-72
2023/05/21 05:20:12;;;;;;;;;;;13.20;99.90;;;;;;5056874;28;19981;-72
2023/05/21 05:22:38;;;;;;;;;;;13.20;99.90;;;;;;5056570;28;19924;-72
2023/05/21 05:25:05;;;;;;;;;;;13.20;99.90;;;;;;5067547;28;19924;-72
2023/05/21 05:27:30;;;;;;;;;;;13.30;99.90;;;;;;5074301;28;20382;-72
2023/05/21 05:29:56;;;;;;;;;;;13.40;99.90;;;;;;5073703;28;19932;-72
2023/05/21 05:32:21;;;;;;;;;;;13.40;99.90;;;;;;5074266;28;19935;-72
2023/05/21 05:34:47;;;;;;;;;;;13.50;99.90;;;;;;5073958;28;19924;-73
2023/05/21 05:37:12;;;;;;;;;;;13.60;99.90;;;;;;5068990;28;19931;-74
2023/05/21 05:39:38;;;;;;;;;;;13.70;99.90;;;;;;5039993;28;19924;-71
2023/05/21 05:42:04;;;;;;;;;;;13.80;99.90;;;;;;5042080;28;20429;-72
2023/05/21 05:44:29;;;;;;;;;;;13.90;99.90;;;;;;5040986;28;19925;-72
2023/05/21 05:46:55;;;;;;;;;;;14.10;99.90;;;;;;5054413;28;20288;-72
2023/05/21 05:49:20;;;;;;;;;;;14.30;99.90;;;;;;5050614;28;20286;-73
2023/05/21 05:51:46;;;;;;;;;;;14.30;99.90;;;;;;5045171;28;19924;-73
2023/05/21 05:54:11;;;;;;;;;;;14.40;99.90;;;;;;5070643;28;20418;-72
2023/05/21 05:56:37;;;;;;;;;;;14.50;99.90;;;;;;5036569;28;20376;-73
2023/05/21 05:59:02;;;;;;;;;;;14.60;99.90;;;;;;5070301;28;19925;-73
2023/05/21 06:01:28;;;;;;;;;;;14.70;99.90;;;;;;5070871;28;20294;-72
2023/05/21 06:03:56;;;;;;;;;;;14.70;99.90;;;;;;5073381;28;20363;-72
2023/05/21 06:06:21;;;;;;;;;;;14.80;99.90;;;;;;5054277;28;19924;-72
2023/05/21 06:08:47;;;;;;;;;;;14.80;99.90;;;;;;5047879;28;20011;-72
2023/05/21 06:11:15;;;;;;;;;;;14.80;99.90;;;;;;5055163;28;19930;-73
2023/05/21 06:13:41;;;;;;;;;;;14.60;99.90;;;;;;5072908;28;19925;-73
2023/05/21 06:16:08;;;;;;;;;;;14.40;99.90;;;;;;5072946;28;20027;-72
2023/05/21 06:18:34;;;;;;;;;;;14.50;99.90;;;;;;5059670;28;19925;-72
2023/05/21 06:21:03;;;;;;;;;;;14.50;99.90;;;;;;5073010;28;19931;-72
2023/05/21 06:23:30;;;;;;;;;;;14.50;99.90;;;;;;5072243;28;20023;-72
2023/05/21 06:25:56;;;;;;;;;;;14.50;99.90;;;;;;5055134;28;19925;-72
2023/05/21 06:28:21;;;;;;;;;;;14.50;99.90;;;;;;5066163;28;19977;-72
2023/05/21 06:30:47;;;;;;;;;;;14.50;99.90;;;;;;5072661;28;19973;-72
2023/05/21 06:33:12;;;;;;;;;;;14.60;99.90;;;;;;5072978;28;19924;-72
2023/05/21 06:35:39;;;;;;;;;;;14.60;99.90;;;;;;5072849;28;20432;-72
2023/05/21 06:38:04;;;;;;;;;;;14.70;99.90;;;;;;5065657;28;19932;-72
2023/05/21 06:40:30;;;;;;;;;;;14.80;99.90;;;;;;5071451;28;19924;-72
2023/05/21 06:42:56;;;;;;;;;;;14.80;99.90;;;;;;5050910;28;20294;-72
2023/05/21 06:45:22;;;;;;;;;;;14.90;99.90;;;;;;5058626;28;20430;-73
2023/05/21 06:47:47;;;;;;;;;;;14.90;99.90;;;;;;5072671;28;19931;-73
2023/05/21 06:50:13;;;;;;;;;;;14.80;99.90;;;;;;5072205;28;20007;-73
2023/05/21 06:52:39;;;;;;;;;;;14.90;99.90;;;;;;5069937;28;19970;-72
2023/05/21 06:55:05;;;;;;;;;;;15.10;99.90;;;;;;5053443;28;19939;-72
2023/05/21 06:57:31;;;;;;;;;;;15.10;99.90;;;;;;5035027;28;19921;-72
2023/05/21 06:59:56;;;;;;;;;;;15.20;99.90;;;;;;5072801;28;20263;-73
2023/05/21 07:02:22;;;;;;;;;;;15.30;99.90;;;;;;5069797;28;19928;-73
2023/05/21 07:04:47;;;;;;;;;;;15.20;99.90;;;;;;5072583;28;20328;-71
2023/05/21 07:07:13;;;;;;;;;;;15.30;99.90;;;;;;5071278;28;19970;-73
2023/05/21 07:09:38;;;;;;;;;;;15.30;99.90;;;;;;5071833;28;19928;-72
2023/05/21 07:12:04;;;;;;;;;;;15.30;99.90;;;;;;5054458;28;19924;-72
2023/05/21 07:14:29;;;;;;;;;;;15.40;99.90;;;;;;5054485;28;20011;-73
2023/05/21 07:16:55;;;;;;;;;;;15.30;99.90;;;;;;5071684;28;20310;-73
2023/05/21 07:19:20;;;;;;;;;;;15.30;99.90;;;;;;5072222;28;19925;-73
2023/05/21 07:21:46;;;;;;;;;;;15.40;99.90;;;;;;5053769;28;19925;-73
2023/05/21 07:24:11;;;;;;;;;;;15.40;99.90;;;;;;5071933;28;19929;-71
2023/05/21 07:26:37;;;;;;;;;;;15.50;99.90;;;;;;5072117;28;19925;-72
2023/05/21 07:29:02;;;;;;;;;;;15.50;99.90;;;;;;5058079;28;20003;-71
2023/05/21 07:31:28;;;;;;;;;;;15.40;99.90;;;;;;5034442;28;19928;-71
2023/05/21 07:33:53;;;;;;;;;;;15.50;99.90;;;;;;5045332;28;20013;-72
2023/05/21 07:36:19;;;;;;;;;;;15.60;99.90;;;;;;5053065;28;19924;-71
2023/05/21 07:38:45;;;;;;;;;;;15.60;99.90;;;;;;5072472;28;19924;-72
2023/05/21 07:41:10;;;;;;;;;;;15.70;99.90;;;;;;5054215;28;20003;-72
2023/05/21 07:43:37;;;;;;;;;;;15.60;99.90;;;;;;5073164;28;19931;-72
2023/05/21 07:46:02;;;;;;;;;;;15.60;99.90;;;;;;5053453;28;20413;-72
2023/05/21 07:48:28;;;;;;;;;;;15.70;99.90;;;;;;5056422;28;19924;-72
2023/05/21 07:50:55;;;;;;;;;;;15.80;99.90;;;;;;5063439;28;20297;-72
2023/05/21 07:53:20;;;;;;;;;;;15.90;99.90;;;;;;5061766;28;20015;-72
2023/05/21 07:55:46;;;;;;;;;;;15.90;99.90;;;;;;5068683;28;20016;-72
2023/05/21 07:58:16;;;;;;;;;;;15.90;99.90;;;;;;5055506;28;19932;-71
2023/05/21 08:00:43;;;;;;;;;;;16.10;99.90;;;;;;5075686;28;19924;-71
2023/05/21 08:03:10;;;;;;;;;;;16.10;99.90;;;;;;5066165;28;19924;-73
2023/05/21 08:05:36;;;;;;;;;;;16.10;99.90;;;;;;5074290;28;19924;-72
2023/05/21 08:08:02;;;;;;;;;;;16.10;99.90;;;;;;5062448;28;20398;-71
2023/05/21 08:10:27;;;;;;;;;;;16.20;99.90;;;;;;5063767;28;19925;-72
2023/05/21 08:12:53;;;;;;;;;;;16.10;99.90;;;;;;5070685;28;20378;-72
2023/05/21 08:15:18;;;;;;;;;;;16.10;99.90;;;;;;5056943;28;20393;-71
2023/05/21 08:17:44;;;;;;;;;;;16.10;99.90;;;;;;5057480;28;20015;-72
2023/05/21 08:20:10;;;;;;;;;;;16.20;99.90;;;;;;5071720;28;19996;-73
2023/05/21 08:22:35;;;;;;;;;;;16.20;99.90;;;;;;5037513;28;19924;-71
2023/05/21 08:25:01;;;;;;;;;;;16.20;99.90;;;;;;5073936;28;19924;-72
2023/05/21 08:27:27;;;;;;;;;;;16.30;99.90;;;;;;5070283;28;20397;-72
2023/05/21 08:29:52;;;;;;;;;;;16.30;99.90;;;;;;5075341;28;19935;-71
2023/05/21 08:32:18;;;;;;;;;;;16.40;99.90;;;;;;5056837;28;19925;-72
2023/05/21 08:34:43;;;;;;;;;;;16.50;99.90;;;;;;5074392;28;19925;-72
2023/05/21 08:37:09;;;;;;;;;;;16.50;99.90;;;;;;5075502;28;19931;-73
2023/05/21 08:39:34;;;;;;;;;;;16.70;99.90;;;;;;5040247;28;19924;-71
2023/05/21 08:42:15;;;;;;;;;;;16.80;99.90;;;;;;5066837;28;20474;-71
2023/05/21 08:44:43;;;;;;;;;;;16.80;99.90;;;;;;5074620;28;19967;-72
2023/05/21 08:47:09;;;;;;;;;;;16.80;99.90;;;;;;5056697;28;20004;-73
2023/05/21 08:49:34;;;;;;;;;;;16.90;99.90;;;;;;5073509;28;20011;-74
2023/05/21 08:52:01;;;;;;;;;;;16.90;99.90;;;;;;5063188;28;19925;-71
2023/05/21 08:54:26;;;;;;;;;;;17.00;99.90;;;;;;5054821;28;20343;-72
2023/05/21 08:56:53;;;;;;;;;;;16.90;99.90;;;;;;5059510;28;19963;-72
2023/05/21 08:59:19;;;;;;;;;;;17.00;99.90;;;;;;5054085;28;19924;-71
2023/05/21 09:01:45;;;;;;;;;;;17.00;99.90;;;;;;5074269;28;19925;-72
2023/05/21 09:04:13;;;;;;;;;;;16.90;99.90;;;;;;5074490;28;19947;-72
2023/05/21 09:06:39;;;;;;;;;;;16.90;99.90;;;;;;5051927;28;19974;-73
2023/05/21 09:09:23;;;;;;;;;;;17.00;99.90;;;;;;5089669;28;19924;-71
2023/05/21 09:11:49;;;;;;;;;;;17.10;99.90;;;;;;5094923;28;19924;-72
2023/05/21 09:14:15;;;;;;;;;;;17.10;99.90;;;;;;5080544;28;19925;-73
2023/05/21 09:16:41;;;;;;;;;;;17.30;99.90;;;;;;5071384;28;20385;-73
2023/05/21 09:19:06;;;;;;;;;;;17.40;99.90;;;;;;5073642;28;19925;-73
2023/05/21 09:21:32;;;;;;;;;;;17.20;99.90;;;;;;5070543;28;19933;-72
2023/05/21 09:23:59;;;;;;;;;;;17.20;99.90;;;;;;5054068;28;20428;-72
2023/05/21 09:26:25;;;;;;;;;;;17.20;99.90;;;;;;5036089;28;19924;-72
2023/05/21 09:28:55;;;;;;;;;;;17.40;99.90;;;;;;5037025;28;20114;-74
2023/05/21 09:31:22;;;;;;;;;;;17.40;99.90;;;;;;5055219;28;20294;-72
2023/05/21 09:33:48;;;;;;;;;;;17.30;99.90;;;;;;5073118;28;20378;-73
2023/05/21 09:36:14;;;;;;;;;;;17.40;99.90;;;;;;5044445;28;19924;-72
2023/05/21 09:38:39;;;;;;;;;;;17.40;99.90;;;;;;5067402;28;20279;-72
2023/05/21 09:41:08;;;;;;;;;;;17.60;99.90;;;;;;5074363;28;19935;-73
2023/05/21 09:43:34;;;;;;;;;;;17.70;99.90;;;;;;5063023;28;20015;-72
2023/05/21 09:45:59;;;;;;;;;;;18.00;99.90;;;;;;5058076;28;20429;-73
2023/05/21 09:48:34;;;;;;;;;;;18.00;99.90;;;;;;5050299;28;19924;-73
2023/05/21 09:51:09;;;;;;;;;;;18.10;99.90;;;;;;5067745;28;20398;-73
2023/05/21 09:53:35;;;;;;;;;;;18.20;99.90;;;;;;5064808;28;20322;-72
2023/05/21 09:56:02;;;;;;;;;;;18.10;99.90;;;;;;5068460;28;19977;-72
2023/05/21 09:58:28;;;;;;;;;;;17.90;99.90;;;;;;5045404;28;19925;-73
2023/05/21 10:00:53;;;;;;;;;;;18.00;99.90;;;;;;5068189;28;20309;-72
2023/05/21 10:03:22;;;;;;;;;;;18.00;99.90;;;;;;5059718;28;19960;-71
2023/05/21 10:05:48;;;;;;;;;;;18.20;99.90;;;;;;5063451;28;19929;-72
2023/05/21 10:08:15;;;;;;;;;;;18.00;99.90;;;;;;5062169;28;19966;-73
2023/05/21 10:10:41;;;;;;;;;;;18.20;99.90;;;;;;5073095;28;20005;-71
2023/05/21 10:13:11;;;;;;;;;;;18.40;99.90;;;;;;5068700;28;19924;-72
2023/05/21 10:15:37;;;;;;;;;;;18.40;99.90;;;;;;5066518;28;19998;-72
2023/05/21 10:18:03;;;;;;;;;;;18.50;99.90;;;;;;5038150;28;19924;-73
2023/05/21 10:20:32;;;;;;;;;;;18.60;99.90;;;;;;5069041;28;19931;-73
2023/05/21 10:22:58;;;;;;;;;;;18.50;99.90;;;;;;5054741;28;20390;-72
2023/05/21 10:25:24;;;;;;;;;;;18.40;99.90;;;;;;5071536;28;20011;-72
2023/05/21 10:27:54;;;;;;;;;;;18.50;99.90;;;;;;5071923;28;19928;-72
2023/05/21 10:30:20;;;;;;;;;;;18.30;99.90;;;;;;5052973;28;19932;-71
2023/05/21 10:32:47;;;;;;;;;;;18.20;99.90;;;;;;5053021;28;19924;-72
2023/05/21 10:35:14;;;;;;;;;;;18.50;99.90;;;;;;5037812;28;19924;-73
2023/05/21 10:37:41;;;;;;;;;;;18.50;99.90;;;;;;5053371;28;19972;-72
2023/05/21 10:40:06;;;;;;;;;;;18.50;99.90;;;;;;5056831;28;20390;-73
2023/05/21 10:42:32;;;;;;;;;;;18.60;99.90;;;;;;5062689;28;19929;-72
2023/05/21 10:45:16;;;;;;;;;;;18.60;99.90;;;;;;5069167;28;19933;-73
2023/05/21 10:48:20;;;;;;;;;;;18.60;99.90;;;;;;5052503;28;20426;-72
2023/05/21 10:51:05;;;;;;;;;;;18.50;99.90;;;;;;4978088;28;19926;-73
2023/05/21 10:53:40;;;;;;;;;;;18.40;99.90;;;;;;4991240;28;19932;-72
2023/05/21 10:56:17;;;;;;;;;;;18.50;99.90;;;;;;5031709;28;19925;-73
2023/05/21 10:59:01;;;;;;;;;;;18.60;99.90;;;;;;5069156;28;19928;-72
2023/05/21 11:01:28;;;;;;;;;;;18.60;99.90;;;;;;5072161;28;19924;-72
2023/05/21 11:03:54;;;;;;;;;;;18.70;99.90;;;;;;5057882;28;19986;-73
2023/05/21 11:06:21;;;;;;;;;;;18.70;99.90;;;;;;5051487;28;20011;-73
2023/05/21 11:08:47;;;;;;;;;;;18.80;99.90;;;;;;5078862;28;20448;-73
2023/05/21 11:11:32;;;;;;;;;;;18.80;99.90;;;;;;5056012;28;20020;-74
2023/05/21 11:13:58;;;;;;;;;;;18.70;99.90;;;;;;5055263;28;20378;-71
2023/05/21 11:16:26;;;;;;;;;;;18.80;99.90;;;;;;5054005;28;19953;-71
2023/05/21 11:18:53;;;;;;;;;;;18.90;99.90;;;;;;5068224;28;19925;-73
2023/05/21 11:21:20;;;;;;;;;;;18.90;99.90;;;;;;5051767;28;19947;-73
2023/05/21 11:23:49;;;;;;;;;;;19.10;99.90;;;;;;5056448;28;19924;-72
2023/05/21 11:26:15;;;;;;;;;;;19.30;99.90;;;;;;5038766;28;19925;-72
2023/05/21 11:28:41;;;;;;;;;;;19.20;99.90;;;;;;5068772;28;19932;-74
2023/05/21 11:31:25;;;;;;;;;;;19.00;99.90;;;;;;5072768;28;20283;-71
2023/05/21 11:34:09;;;;;;;;;;;18.90;99.90;;;;;;5068187;28;20011;-72
2023/05/21 11:36:48;;;;;;;;;;;19.10;99.90;;;;;;5063620;28;20397;-72
2023/05/21 11:39:14;;;;;;;;;;;19.10;99.90;;;;;;5056606;28;20474;-73
2023/05/21 11:41:58;;;;;;;;;;;19.10;99.90;;;;;;5058889;28;20386;-73
2023/05/21 11:44:42;;;;;;;;;;;19.10;99.90;;;;;;5055333;28;20010;-72
2023/05/21 11:47:08;;;;;;;;;;;19.20;99.90;;;;;;5039368;28;19932;-73
2023/05/21 11:49:34;;;;;;;;;;;19.20;99.90;;;;;;5061182;28;19932;-72
2023/05/21 11:52:00;;;;;;;;;;;19.20;99.90;;;;;;5072025;28;19964;-73
2023/05/21 11:54:26;;;;;;;;;;;19.20;99.90;;;;;;5074171;28;19983;-73
2023/05/21 11:56:55;;;;;;;;;;;19.00;99.90;;;;;;5075596;28;19929;-72
2023/05/21 11:59:21;;;;;;;;;;;18.90;99.90;;;;;;5075368;28;19978;-72
2023/05/21 12:01:46;;;;;;;;;;;18.90;99.90;;;;;;5069945;28;19928;-72
2023/05/21 12:04:12;;;;;;;;;;;18.80;99.90;;;;;;5070373;28;19982;-73
2023/05/21 12:06:41;;;;;;;;;;;18.80;99.90;;;;;;5067343;28;20015;-73
2023/05/21 12:09:10;;;;;;;;;;;18.70;99.90;;;;;;5073516;28;19999;-74
2023/05/21 12:11:42;;;;;;;;;;;18.80;99.90;;;;;;5043928;28;19928;-72
2023/05/21 12:14:08;;;;;;;;;;;18.70;99.90;;;;;;5058849;28;19924;-72
2023/05/21 12:16:34;;;;;;;;;;;18.80;99.90;;;;;;5059238;28;19955;-72
2023/05/21 12:19:00;;;;;;;;;;;19.00;99.90;;;;;;5090806;28;20344;-74
2023/05/21 12:21:28;;;;;;;;;;;19.00;99.90;;;;;;5090113;28;19970;-74
2023/05/21 12:23:55;;;;;;;;;;;19.20;99.90;;;;;;5074928;28;19924;-73
2023/05/21 12:26:21;;;;;;;;;;;19.20;99.90;;;;;;5075398;28;19924;-72
2023/05/21 12:28:47;;;;;;;;;;;19.20;99.90;;;;;;5073521;28;20041;-73
2023/05/21 12:31:13;;;;;;;;;;;19.40;99.90;;;;;;5062850;28;19935;-73
2023/05/21 12:33:39;;;;;;;;;;;19.30;99.90;;;;;;5073893;28;19924;-72
2023/05/21 12:36:05;;;;;;;;;;;19.30;99.90;;;;;;5059334;28;20015;-74
2023/05/21 12:38:30;;;;;;;;;;;19.50;99.90;;;;;;5037101;28;19971;-72
2023/05/21 12:41:01;;;;;;;;;;;19.60;99.90;;;;;;5063364;28;19959;-72
2023/05/21 12:43:30;;;;;;;;;;;19.60;99.90;;;;;;5069706;28;19932;-73
2023/05/21 12:45:55;;;;;;;;;;;19.60;99.90;;;;;;5056041;28;19990;-73
2023/05/21 12:48:21;;;;;;;;;;;19.70;99.90;;;;;;5055069;28;20363;-72
2023/05/21 12:50:47;;;;;;;;;;;19.80;99.90;;;;;;5068379;28;19924;-73
2023/05/21 12:53:12;;;;;;;;;;;19.60;99.90;;;;;;5045908;28;19925;-74
2023/05/21 12:55:39;;;;;;;;;;;19.40;99.90;;;;;;5062405;28;19925;-73
2023/05/21 12:58:06;;;;;;;;;;;19.50;99.90;;;;;;5049175;28;19978;-72
2023/05/21 13:00:32;;;;;;;;;;;19.80;99.90;;;;;;5069240;28;20295;-72
2023/05/21 13:02:59;;;;;;;;;;;19.90;99.90;;;;;;5074173;28;19984;-74
2023/05/21 13:05:25;;;;;;;;;;;20.00;99.90;;;;;;5056325;28;20015;-72
2023/05/21 13:07:50;;;;;;;;;;;19.80;99.90;;;;;;5055981;28;19983;-72
2023/05/21 13:10:16;;;;;;;;;;;19.90;99.90;;;;;;5062752;28;20395;-72
2023/05/21 13:12:42;;;;;;;;;;;19.90;99.90;;;;;;5043320;28;20515;-73
2023/05/21 13:15:08;;;;;;;;;;;19.80;99.90;;;;;;5064725;28;20003;-73
2023/05/21 13:17:33;;;;;;;;;;;19.80;99.90;;;;;;5074543;28;20007;-73
2023/05/21 13:20:06;;;;;;;;;;;19.90;99.90;;;;;;5069384;28;19924;-74
2023/05/21 13:22:31;;;;;;;;;;;20.10;99.90;;;;;;5056716;28;19967;-73
2023/05/21 13:24:57;;;;;;;;;;;20.40;99.90;;;;;;5047579;28;19963;-73
2023/05/21 13:27:22;;;;;;;;;;;20.40;99.90;;;;;;5065891;28;19946;-73
2023/05/21 13:29:48;;;;;;;;;;;20.60;99.90;;;;;;5056137;28;19947;-72
2023/05/21 13:32:14;;;;;;;;;;;20.50;99.90;;;;;;5058634;28;20305;-74
2023/05/21 13:34:39;;;;;;;;;;;20.80;99.90;;;;;;5075779;28;19924;-73
2023/05/21 13:37:05;;;;;;;;;;;20.80;99.90;;;;;;5069734;28;19929;-73
2023/05/21 13:39:30;;;;;;;;;;;20.80;99.90;;;;;;5066598;28;19925;-73
2023/05/21 13:41:56;;;;;;;;;;;20.80;99.90;;;;;;5039593;28;20318;-73
2023/05/21 13:44:21;;;;;;;;;;;21.00;99.90;;;;;;5065468;28;19943;-73
2023/05/21 13:46:47;;;;;;;;;;;21.10;99.90;;;;;;5063800;28;19932;-73
2023/05/21 13:49:13;;;;;;;;;;;21.10;99.90;;;;;;5074564;28;19925;-72
2023/05/21 13:51:38;;;;;;;;;;;21.20;99.90;;;;;;5057406;28;19930;-73
2023/05/21 13:54:07;;;;;;;;;;;21.20;99.90;;;;;;5064741;28;20025;-72
2023/05/21 13:56:32;;;;;;;;;;;21.00;99.90;;;;;;5063866;28;20386;-73
2023/05/21 13:58:58;;;;;;;;;;;21.20;99.90;;;;;;5049126;28;19925;-74
2023/05/21 14:01:24;;;;;;;;;;;21.50;99.90;;;;;;5068113;28;19978;-72
2023/05/21 14:03:49;;;;;;;;;;;21.50;99.90;;;;;;5070411;28;19928;-73
2023/05/21 14:06:15;;;;;;;;;;;21.60;99.90;;;;;;5072008;28;20365;-73
2023/05/21 14:08:40;;;;;;;;;;;21.60;99.90;;;;;;5071170;28;19928;-74
2023/05/21 14:11:06;;;;;;;;;;;21.80;99.90;;;;;;5069429;28;19924;-73
2023/05/21 14:13:32;;;;;;;;;;;21.80;99.90;;;;;;5070356;28;20309;-72